sensor_id;sensor_type;location;lat;lon;timestamp;P1;durP1;ratioP1;P2;durP2;ratioP2
4738;SDS011;2383;48.632;10.156;2023-04-25T00:02:08;8.73;;;4.03;;
4738;SDS011;2383;48.632;10.156;2023-04-25T00:06:10;3.37;;;3.07;;
4738;SDS011;2383;48.632;10.156;2023-04-25T00:10:13;9.53;;;6.33;;
4738;SDS011;2383;48.632;10.156;2023-04-25T00:14:16;5.23;;;4.10;;
4738;SDS011;2383;48.632;10.156;2023-04-25T00:18:18;5.00;;;3.80;;
4738;SDS011;2383;48.632;10.156;2023-04-25T00:22:21;4.63;;;2.90;;
4738;SDS011;2383;48.632;10.156;2023-04-25T00:26:24;5.60;;;2.67;;
4738;SDS011;2383;48.632;10.156;2023-04-25T00:30:26;4.47;;;3.00;;
4738;SDS011;2383;48.632;10.156;2023-04-25T00:34:28;7.63;;;3.53;;
4738;SDS011;2383;48.632;10.156;2023-04-25T00:38:30;4.03;;;2.77;;
4738;SDS011;2383;48.632;10.156;2023-04-25T00:42:33;10.77;;;4.63;;
4738;SDS011;2383;48.632;10.156;2023-04-25T00:46:38;6.47;;;3.53;;
4738;SDS011;2383;48.632;10.156;2023-04-25T00:50:41;3.77;;;3.07;;
4738;SDS011;2383;48.632;10.156;2023-04-25T00:54:44;9.00;;;4.07;;
4738;SDS011;2383;48.632;10.156;2023-04-25T00:58:46;7.30;;;3.50;;
4738;SDS011;2383;48.632;10.156;2023-04-25T01:02:49;2.77;;;2.23;;
4738;SDS011;2383;48.632;10.156;2023-04-25T01:06:52;5.97;;;2.57;;
4738;SDS011;2383;48.632;10.156;2023-04-25T01:10:54;5.80;;;2.70;;
4738;SDS011;2383;48.632;10.156;2023-04-25T01:14:56;4.70;;;3.20;;
4738;SDS011;2383;48.632;10.156;2023-04-25T01:18:59;5.70;;;2.67;;
4738;SDS011;2383;48.632;10.156;2023-04-25T01:23:01;5.10;;;2.93;;
4738;SDS011;2383;48.632;10.156;2023-04-25T01:27:04;4.67;;;3.33;;
4738;SDS011;2383;48.632;10.156;2023-04-25T01:31:08;5.73;;;3.60;;
4738;SDS011;2383;48.632;10.156;2023-04-25T01:35:11;4.43;;;3.53;;
4738;SDS011;2383;48.632;10.156;2023-04-25T01:39:13;4.23;;;3.00;;
4738;SDS011;2383;48.632;10.156;2023-04-25T01:43:16;7.23;;;2.80;;
4738;SDS011;2383;48.632;10.156;2023-04-25T01:47:19;5.60;;;2.97;;
4738;SDS011;2383;48.632;10.156;2023-04-25T01:51:21;5.43;;;3.10;;
4738;SDS011;2383;48.632;10.156;2023-04-25T01:55:24;3.63;;;3.00;;
4738;SDS011;2383;48.632;10.156;2023-04-25T01:59:39;6.93;;;4.00;;
4738;SDS011;2383;48.632;10.156;2023-04-25T02:03:51;5.47;;;2.93;;
4738;SDS011;2383;48.632;10.156;2023-04-25T02:08:08;5.87;;;2.93;;
4738;SDS011;2383;48.632;10.156;2023-04-25T02:12:11;5.73;;;3.17;;
4738;SDS011;2383;48.632;10.156;2023-04-25T02:16:32;3.47;;;2.90;;
4738;SDS011;2383;48.632;10.156;2023-04-25T02:20:36;6.13;;;3.53;;
4738;SDS011;2383;48.632;10.156;2023-04-25T02:24:38;5.40;;;2.80;;
4738;SDS011;2383;48.632;10.156;2023-04-25T02:28:41;4.47;;;3.10;;
4738;SDS011;2383;48.632;10.156;2023-04-25T02:32:43;5.63;;;2.87;;
4738;SDS011;2383;48.632;10.156;2023-04-25T02:36:45;4.67;;;2.77;;
4738;SDS011;2383;48.632;10.156;2023-04-25T02:40:47;3.93;;;3.20;;
4738;SDS011;2383;48.632;10.156;2023-04-25T02:44:49;6.07;;;3.20;;
4738;SDS011;2383;48.632;10.156;2023-04-25T02:48:51;4.73;;;2.87;;
4738;SDS011;2383;48.632;10.156;2023-04-25T02:52:53;5.87;;;3.10;;
4738;SDS011;2383;48.632;10.156;2023-04-25T02:57:01;3.40;;;3.10;;
4738;SDS011;2383;48.632;10.156;2023-04-25T03:01:09;5.63;;;3.03;;
4738;SDS011;2383;48.632;10.156;2023-04-25T03:05:11;4.60;;;3.47;;
4738;SDS011;2383;48.632;10.156;2023-04-25T03:09:13;3.60;;;3.30;;
4738;SDS011;2383;48.632;10.156;2023-04-25T03:13:15;5.47;;;3.30;;
4738;SDS011;2383;48.632;10.156;2023-04-25T03:17:18;5.73;;;2.93;;
4738;SDS011;2383;48.632;10.156;2023-04-25T03:21:19;4.93;;;3.13;;
4738;SDS011;2383;48.632;10.156;2023-04-25T03:25:22;7.43;;;3.87;;
4738;SDS011;2383;48.632;10.156;2023-04-25T03:29:23;4.23;;;3.00;;
4738;SDS011;2383;48.632;10.156;2023-04-25T03:33:29;5.83;;;3.30;;
4738;SDS011;2383;48.632;10.156;2023-04-25T03:37:31;6.63;;;3.57;;
4738;SDS011;2383;48.632;10.156;2023-04-25T03:41:33;3.87;;;3.50;;
4738;SDS011;2383;48.632;10.156;2023-04-25T03:45:40;3.43;;;3.07;;
4738;SDS011;2383;48.632;10.156;2023-04-25T03:49:42;4.93;;;3.53;;
4738;SDS011;2383;48.632;10.156;2023-04-25T03:53:44;5.57;;;3.23;;
4738;SDS011;2383;48.632;10.156;2023-04-25T03:57:49;7.43;;;5.13;;
4738;SDS011;2383;48.632;10.156;2023-04-25T04:01:52;4.93;;;4.00;;
4738;SDS011;2383;48.632;10.156;2023-04-25T04:05:54;6.87;;;3.90;;
4738;SDS011;2383;48.632;10.156;2023-04-25T04:09:56;7.83;;;4.77;;
4738;SDS011;2383;48.632;10.156;2023-04-25T04:14:09;8.67;;;4.37;;
4738;SDS011;2383;48.632;10.156;2023-04-25T04:18:16;5.57;;;4.00;;
4738;SDS011;2383;48.632;10.156;2023-04-25T04:22:18;7.80;;;4.10;;
4738;SDS011;2383;48.632;10.156;2023-04-25T04:26:21;8.60;;;5.13;;
4738;SDS011;2383;48.632;10.156;2023-04-25T04:30:40;7.03;;;5.07;;
4738;SDS011;2383;48.632;10.156;2023-04-25T04:34:43;10.10;;;5.83;;
4738;SDS011;2383;48.632;10.156;2023-04-25T04:38:49;7.17;;;4.17;;
4738;SDS011;2383;48.632;10.156;2023-04-25T04:42:59;4.03;;;3.47;;
4738;SDS011;2383;48.632;10.156;2023-04-25T04:47:20;7.07;;;3.80;;
4738;SDS011;2383;48.632;10.156;2023-04-25T04:51:38;37.53;;;31.43;;
4738;SDS011;2383;48.632;10.156;2023-04-25T04:55:54;6.33;;;4.73;;
4738;SDS011;2383;48.632;10.156;2023-04-25T05:00:22;6.03;;;3.63;;
4738;SDS011;2383;48.632;10.156;2023-04-25T05:04:50;6.07;;;4.27;;
4738;SDS011;2383;48.632;10.156;2023-04-25T05:09:01;8.80;;;5.57;;
4738;SDS011;2383;48.632;10.156;2023-04-25T05:13:25;6.40;;;4.40;;
4738;SDS011;2383;48.632;10.156;2023-04-25T05:17:42;4.00;;;3.60;;
4738;SDS011;2383;48.632;10.156;2023-04-25T05:21:58;11.37;;;4.33;;
4738;SDS011;2383;48.632;10.156;2023-04-25T05:26:18;10.33;;;3.70;;
4738;SDS011;2383;48.632;10.156;2023-04-25T05:30:32;3.97;;;3.07;;
4738;SDS011;2383;48.632;10.156;2023-04-25T05:34:58;5.00;;;3.50;;
4738;SDS011;2383;48.632;10.156;2023-04-25T05:39:05;8.23;;;4.90;;
4738;SDS011;2383;48.632;10.156;2023-04-25T05:43:26;8.50;;;4.57;;
4738;SDS011;2383;48.632;10.156;2023-04-25T05:47:36;6.07;;;4.03;;
4738;SDS011;2383;48.632;10.156;2023-04-25T05:51:52;7.40;;;4.03;;
4738;SDS011;2383;48.632;10.156;2023-04-25T05:56:08;4.47;;;2.97;;
4738;SDS011;2383;48.632;10.156;2023-04-25T06:00:11;5.67;;;4.03;;
4738;SDS011;2383;48.632;10.156;2023-04-25T06:04:14;8.23;;;3.53;;
4738;SDS011;2383;48.632;10.156;2023-04-25T06:08:17;9.97;;;4.80;;
4738;SDS011;2383;48.632;10.156;2023-04-25T06:12:19;5.33;;;3.83;;
4738;SDS011;2383;48.632;10.156;2023-04-25T06:16:23;4.77;;;3.57;;
4738;SDS011;2383;48.632;10.156;2023-04-25T06:20:27;7.40;;;4.37;;
4738;SDS011;2383;48.632;10.156;2023-04-25T06:24:33;5.40;;;4.00;;
4738;SDS011;2383;48.632;10.156;2023-04-25T06:28:37;5.77;;;4.00;;
4738;SDS011;2383;48.632;10.156;2023-04-25T06:32:40;5.87;;;4.07;;
4738;SDS011;2383;48.632;10.156;2023-04-25T06:36:42;7.63;;;3.90;;
4738;SDS011;2383;48.632;10.156;2023-04-25T06:40:48;8.37;;;3.30;;
4738;SDS011;2383;48.632;10.156;2023-04-25T06:44:52;4.90;;;3.10;;
4738;SDS011;2383;48.632;10.156;2023-04-25T06:48:55;4.70;;;2.87;;
4738;SDS011;2383;48.632;10.156;2023-04-25T06:52:57;5.53;;;3.50;;
4738;SDS011;2383;48.632;10.156;2023-04-25T06:56:59;7.03;;;3.70;;
4738;SDS011;2383;48.632;10.156;2023-04-25T07:01:02;9.40;;;3.40;;
4738;SDS011;2383;48.632;10.156;2023-04-25T07:05:05;3.30;;;2.73;;
4738;SDS011;2383;48.632;10.156;2023-04-25T07:09:09;3.97;;;2.70;;
4738;SDS011;2383;48.632;10.156;2023-04-25T07:13:12;5.47;;;3.00;;
4738;SDS011;2383;48.632;10.156;2023-04-25T07:17:14;5.83;;;3.00;;
4738;SDS011;2383;48.632;10.156;2023-04-25T07:21:17;3.20;;;2.90;;
4738;SDS011;2383;48.632;10.156;2023-04-25T07:25:21;3.70;;;2.40;;
4738;SDS011;2383;48.632;10.156;2023-04-25T07:29:24;6.07;;;2.80;;
4738;SDS011;2383;48.632;10.156;2023-04-25T07:33:26;5.73;;;3.27;;
4738;SDS011;2383;48.632;10.156;2023-04-25T07:37:29;6.23;;;3.13;;
4738;SDS011;2383;48.632;10.156;2023-04-25T07:41:39;5.60;;;3.30;;
4738;SDS011;2383;48.632;10.156;2023-04-25T07:45:46;5.43;;;2.80;;
4738;SDS011;2383;48.632;10.156;2023-04-25T07:49:50;4.70;;;3.23;;
4738;SDS011;2383;48.632;10.156;2023-04-25T07:53:52;3.57;;;2.90;;
4738;SDS011;2383;48.632;10.156;2023-04-25T07:57:55;4.07;;;2.50;;
4738;SDS011;2383;48.632;10.156;2023-04-25T08:01:58;5.63;;;2.60;;
4738;SDS011;2383;48.632;10.156;2023-04-25T08:06:00;4.50;;;2.37;;
4738;SDS011;2383;48.632;10.156;2023-04-25T08:10:12;3.33;;;2.70;;
4738;SDS011;2383;48.632;10.156;2023-04-25T08:14:16;3.40;;;2.80;;
4738;SDS011;2383;48.632;10.156;2023-04-25T08:18:19;4.03;;;3.03;;
4738;SDS011;2383;48.632;10.156;2023-04-25T08:22:23;3.70;;;2.50;;
4738;SDS011;2383;48.632;10.156;2023-04-25T08:26:34;3.17;;;2.50;;
4738;SDS011;2383;48.632;10.156;2023-04-25T08:30:39;3.47;;;2.63;;
4738;SDS011;2383;48.632;10.156;2023-04-25T08:34:45;5.07;;;2.80;;
4738;SDS011;2383;48.632;10.156;2023-04-25T08:38:48;7.63;;;2.93;;
4738;SDS011;2383;48.632;10.156;2023-04-25T08:42:53;6.67;;;2.90;;
4738;SDS011;2383;48.632;10.156;2023-04-25T08:46:57;4.30;;;3.07;;
4738;SDS011;2383;48.632;10.156;2023-04-25T08:51:03;4.10;;;2.90;;
4738;SDS011;2383;48.632;10.156;2023-04-25T08:55:14;4.87;;;3.00;;
4738;SDS011;2383;48.632;10.156;2023-04-25T08:59:17;4.73;;;3.10;;
4738;SDS011;2383;48.632;10.156;2023-04-25T09:03:21;3.27;;;2.60;;
4738;SDS011;2383;48.632;10.156;2023-04-25T09:07:24;3.10;;;2.80;;
4738;SDS011;2383;48.632;10.156;2023-04-25T09:11:28;3.47;;;2.57;;
4738;SDS011;2383;48.632;10.156;2023-04-25T09:15:32;3.80;;;2.90;;
4738;SDS011;2383;48.632;10.156;2023-04-25T09:19:43;4.93;;;2.83;;
4738;SDS011;2383;48.632;10.156;2023-04-25T09:23:55;3.93;;;2.60;;
4738;SDS011;2383;48.632;10.156;2023-04-25T09:27:57;4.37;;;3.13;;
4738;SDS011;2383;48.632;10.156;2023-04-25T09:36:23;3.77;;;2.90;;
4738;SDS011;2383;48.632;10.156;2023-04-25T09:40:56;3.83;;;3.40;;
4738;SDS011;2383;48.632;10.156;2023-04-25T09:45:08;3.87;;;3.07;;
4738;SDS011;2383;48.632;10.156;2023-04-25T09:49:17;4.80;;;3.70;;
4738;SDS011;2383;48.632;10.156;2023-04-25T09:53:34;3.50;;;3.20;;
4738;SDS011;2383;48.632;10.156;2023-04-25T09:57:59;6.33;;;2.93;;
4738;SDS011;2383;48.632;10.156;2023-04-25T10:02:07;3.20;;;2.90;;
4738;SDS011;2383;48.632;10.156;2023-04-25T10:06:14;5.63;;;3.20;;
4738;SDS011;2383;48.632;10.156;2023-04-25T10:10:23;2.67;;;2.47;;
4738;SDS011;2383;48.632;10.156;2023-04-25T10:14:31;3.90;;;3.50;;
4738;SDS011;2383;48.632;10.156;2023-04-25T10:18:33;4.67;;;4.00;;
4738;SDS011;2383;48.632;10.156;2023-04-25T10:26:45;6.37;;;3.00;;
4738;SDS011;2383;48.632;10.156;2023-04-25T10:31:06;4.50;;;2.87;;
4738;SDS011;2383;48.632;10.156;2023-04-25T10:35:17;3.83;;;3.20;;
4738;SDS011;2383;48.632;10.156;2023-04-25T10:39:21;3.53;;;3.23;;
4738;SDS011;2383;48.632;10.156;2023-04-25T10:47:36;4.50;;;3.17;;
4738;SDS011;2383;48.632;10.156;2023-04-25T10:51:46;2.67;;;2.47;;
4738;SDS011;2383;48.632;10.156;2023-04-25T10:55:56;3.53;;;2.20;;
4738;SDS011;2383;48.632;10.156;2023-04-25T10:59:59;2.60;;;2.40;;
4738;SDS011;2383;48.632;10.156;2023-04-25T11:04:33;2.50;;;2.30;;
4738;SDS011;2383;48.632;10.156;2023-04-25T11:08:47;3.87;;;3.40;;
4738;SDS011;2383;48.632;10.156;2023-04-25T11:12:52;2.30;;;2.00;;
4738;SDS011;2383;48.632;10.156;2023-04-25T11:16:57;2.40;;;2.07;;
4738;SDS011;2383;48.632;10.156;2023-04-25T11:21:02;1.60;;;1.50;;
4738;SDS011;2383;48.632;10.156;2023-04-25T11:25:05;1.50;;;1.40;;
4738;SDS011;2383;48.632;10.156;2023-04-25T11:29:08;1.50;;;1.40;;
4738;SDS011;2383;48.632;10.156;2023-04-25T11:33:11;1.67;;;1.30;;
4738;SDS011;2383;48.632;10.156;2023-04-25T11:37:13;2.33;;;1.23;;
4738;SDS011;2383;48.632;10.156;2023-04-25T11:41:15;1.40;;;1.30;;
4738;SDS011;2383;48.632;10.156;2023-04-25T11:45:18;1.17;;;1.10;;
4738;SDS011;2383;48.632;10.156;2023-04-25T11:49:20;1.33;;;1.23;;
4738;SDS011;2383;48.632;10.156;2023-04-25T11:53:23;4.00;;;1.20;;
4738;SDS011;2383;48.632;10.156;2023-04-25T11:57:26;1.30;;;1.20;;
4738;SDS011;2383;48.632;10.156;2023-04-25T12:01:32;2.23;;;1.70;;
4738;SDS011;2383;48.632;10.156;2023-04-25T12:05:37;4.03;;;2.10;;
4738;SDS011;2383;48.632;10.156;2023-04-25T12:09:39;5.80;;;3.40;;
4738;SDS011;2383;48.632;10.156;2023-04-25T12:13:42;3.40;;;3.10;;
4738;SDS011;2383;48.632;10.156;2023-04-25T12:17:46;4.70;;;3.90;;
4738;SDS011;2383;48.632;10.156;2023-04-25T12:21:50;3.77;;;3.13;;
4738;SDS011;2383;48.632;10.156;2023-04-25T12:25:55;6.07;;;4.33;;
4738;SDS011;2383;48.632;10.156;2023-04-25T12:29:57;8.43;;;2.10;;
4738;SDS011;2383;48.632;10.156;2023-04-25T12:34:00;1.80;;;1.70;;
4738;SDS011;2383;48.632;10.156;2023-04-25T12:38:02;1.90;;;1.50;;
4738;SDS011;2383;48.632;10.156;2023-04-25T12:42:04;1.37;;;1.27;;
4738;SDS011;2383;48.632;10.156;2023-04-25T12:46:09;1.30;;;1.20;;
4738;SDS011;2383;48.632;10.156;2023-04-25T12:50:11;0.83;;;0.83;;
4738;SDS011;2383;48.632;10.156;2023-04-25T12:54:14;1.10;;;1.00;;
4738;SDS011;2383;48.632;10.156;2023-04-25T12:58:16;1.50;;;1.40;;
4738;SDS011;2383;48.632;10.156;2023-04-25T13:02:20;1.47;;;1.37;;
4738;SDS011;2383;48.632;10.156;2023-04-25T13:06:22;1.60;;;1.50;;
4738;SDS011;2383;48.632;10.156;2023-04-25T13:10:24;3.37;;;1.93;;
4738;SDS011;2383;48.632;10.156;2023-04-25T13:14:26;2.40;;;2.20;;
4738;SDS011;2383;48.632;10.156;2023-04-25T13:18:29;3.27;;;2.77;;
4738;SDS011;2383;48.632;10.156;2023-04-25T13:22:31;2.97;;;2.53;;
4738;SDS011;2383;48.632;10.156;2023-04-25T13:26:33;2.63;;;2.43;;
4738;SDS011;2383;48.632;10.156;2023-04-25T13:30:36;4.07;;;2.67;;
4738;SDS011;2383;48.632;10.156;2023-04-25T13:34:38;2.50;;;2.10;;
4738;SDS011;2383;48.632;10.156;2023-04-25T13:38:40;2.93;;;2.50;;
4738;SDS011;2383;48.632;10.156;2023-04-25T13:42:45;2.30;;;2.10;;
4738;SDS011;2383;48.632;10.156;2023-04-25T13:46:47;2.20;;;2.00;;
4738;SDS011;2383;48.632;10.156;2023-04-25T13:50:49;2.93;;;2.30;;
4738;SDS011;2383;48.632;10.156;2023-04-25T13:54:52;3.40;;;2.83;;
4738;SDS011;2383;48.632;10.156;2023-04-25T13:58:54;5.33;;;3.03;;
4738;SDS011;2383;48.632;10.156;2023-04-25T14:02:56;3.87;;;3.10;;
4738;SDS011;2383;48.632;10.156;2023-04-25T14:06:58;4.10;;;2.93;;
4738;SDS011;2383;48.632;10.156;2023-04-25T14:11:01;3.33;;;3.03;;
4738;SDS011;2383;48.632;10.156;2023-04-25T14:15:03;4.10;;;3.30;;
4738;SDS011;2383;48.632;10.156;2023-04-25T14:19:05;3.70;;;3.10;;
4738;SDS011;2383;48.632;10.156;2023-04-25T14:23:07;4.60;;;3.53;;
4738;SDS011;2383;48.632;10.156;2023-04-25T14:27:10;3.27;;;2.97;;
4738;SDS011;2383;48.632;10.156;2023-04-25T14:31:13;4.87;;;2.90;;
4738;SDS011;2383;48.632;10.156;2023-04-25T14:35:15;6.03;;;3.43;;
4738;SDS011;2383;48.632;10.156;2023-04-25T14:39:17;3.90;;;3.00;;
4738;SDS011;2383;48.632;10.156;2023-04-25T14:43:20;12.07;;;7.20;;
4738;SDS011;2383;48.632;10.156;2023-04-25T14:47:22;4.07;;;2.83;;
4738;SDS011;2383;48.632;10.156;2023-04-25T14:51:24;4.80;;;3.13;;
4738;SDS011;2383;48.632;10.156;2023-04-25T14:55:27;3.17;;;2.50;;
4738;SDS011;2383;48.632;10.156;2023-04-25T14:59:29;4.50;;;2.80;;
4738;SDS011;2383;48.632;10.156;2023-04-25T15:03:31;4.70;;;3.10;;
4738;SDS011;2383;48.632;10.156;2023-04-25T15:07:47;5.57;;;2.70;;
4738;SDS011;2383;48.632;10.156;2023-04-25T15:11:50;4.33;;;3.20;;
4738;SDS011;2383;48.632;10.156;2023-04-25T15:15:52;4.10;;;3.00;;
4738;SDS011;2383;48.632;10.156;2023-04-25T15:19:55;4.00;;;3.10;;
4738;SDS011;2383;48.632;10.156;2023-04-25T15:23:57;4.00;;;2.80;;
4738;SDS011;2383;48.632;10.156;2023-04-25T15:28:02;4.60;;;3.50;;
4738;SDS011;2383;48.632;10.156;2023-04-25T15:32:04;5.07;;;3.67;;
4738;SDS011;2383;48.632;10.156;2023-04-25T15:36:07;5.77;;;3.30;;
4738;SDS011;2383;48.632;10.156;2023-04-25T15:44:14;4.70;;;3.87;;
4738;SDS011;2383;48.632;10.156;2023-04-25T15:48:16;6.10;;;5.00;;
4738;SDS011;2383;48.632;10.156;2023-04-25T15:52:18;8.47;;;5.27;;
4738;SDS011;2383;48.632;10.156;2023-04-25T15:56:22;9.70;;;7.87;;
4738;SDS011;2383;48.632;10.156;2023-04-25T16:00:24;8.07;;;4.90;;
4738;SDS011;2383;48.632;10.156;2023-04-25T16:04:26;3.67;;;2.07;;
4738;SDS011;2383;48.632;10.156;2023-04-25T16:08:36;4.40;;;1.70;;
4738;SDS011;2383;48.632;10.156;2023-04-25T16:12:38;3.20;;;2.23;;
4738;SDS011;2383;48.632;10.156;2023-04-25T16:16:42;3.60;;;3.00;;
4738;SDS011;2383;48.632;10.156;2023-04-25T16:20:45;5.03;;;2.47;;
4738;SDS011;2383;48.632;10.156;2023-04-25T16:24:47;3.37;;;2.77;;
4738;SDS011;2383;48.632;10.156;2023-04-25T16:28:49;5.03;;;2.83;;
4738;SDS011;2383;48.632;10.156;2023-04-25T16:32:51;5.60;;;3.30;;
4738;SDS011;2383;48.632;10.156;2023-04-25T16:36:54;5.77;;;3.33;;
4738;SDS011;2383;48.632;10.156;2023-04-25T16:40:57;4.50;;;3.73;;
4738;SDS011;2383;48.632;10.156;2023-04-25T16:44:59;3.80;;;3.40;;
4738;SDS011;2383;48.632;10.156;2023-04-25T16:49:01;5.50;;;3.60;;
4738;SDS011;2383;48.632;10.156;2023-04-25T16:53:03;6.10;;;3.27;;
4738;SDS011;2383;48.632;10.156;2023-04-25T16:57:05;9.87;;;3.53;;
4738;SDS011;2383;48.632;10.156;2023-04-25T17:01:10;6.57;;;3.63;;
4738;SDS011;2383;48.632;10.156;2023-04-25T17:05:16;4.90;;;3.43;;
4738;SDS011;2383;48.632;10.156;2023-04-25T17:09:18;5.77;;;4.37;;
4738;SDS011;2383;48.632;10.156;2023-04-25T17:13:20;5.13;;;3.70;;
4738;SDS011;2383;48.632;10.156;2023-04-25T17:17:31;4.87;;;3.83;;
4738;SDS011;2383;48.632;10.156;2023-04-25T17:21:33;8.90;;;5.47;;
4738;SDS011;2383;48.632;10.156;2023-04-25T17:25:35;5.37;;;3.97;;
4738;SDS011;2383;48.632;10.156;2023-04-25T17:29:37;8.40;;;5.00;;
4738;SDS011;2383;48.632;10.156;2023-04-25T17:33:39;10.90;;;6.40;;
4738;SDS011;2383;48.632;10.156;2023-04-25T17:37:42;10.47;;;6.80;;
4738;SDS011;2383;48.632;10.156;2023-04-25T17:41:44;8.87;;;5.67;;
4738;SDS011;2383;48.632;10.156;2023-04-25T17:45:46;7.27;;;5.43;;
4738;SDS011;2383;48.632;10.156;2023-04-25T17:49:48;6.57;;;4.50;;
4738;SDS011;2383;48.632;10.156;2023-04-25T17:53:51;7.60;;;6.13;;
4738;SDS011;2383;48.632;10.156;2023-04-25T17:57:54;6.37;;;4.70;;
4738;SDS011;2383;48.632;10.156;2023-04-25T18:01:56;9.73;;;6.73;;
4738;SDS011;2383;48.632;10.156;2023-04-25T18:06:00;5.90;;;4.97;;
4738;SDS011;2383;48.632;10.156;2023-04-25T18:10:03;5.13;;;4.63;;
4738;SDS011;2383;48.632;10.156;2023-04-25T18:14:06;6.67;;;5.33;;
4738;SDS011;2383;48.632;10.156;2023-04-25T18:18:14;5.60;;;4.30;;
4738;SDS011;2383;48.632;10.156;2023-04-25T18:22:20;8.23;;;6.97;;
4738;SDS011;2383;48.632;10.156;2023-04-25T18:26:23;7.17;;;4.77;;
4738;SDS011;2383;48.632;10.156;2023-04-25T18:30:25;7.53;;;4.83;;
4738;SDS011;2383;48.632;10.156;2023-04-25T18:34:27;6.83;;;4.83;;
4738;SDS011;2383;48.632;10.156;2023-04-25T18:38:29;6.87;;;4.83;;
4738;SDS011;2383;48.632;10.156;2023-04-25T18:42:36;9.23;;;6.17;;
4738;SDS011;2383;48.632;10.156;2023-04-25T18:46:38;6.67;;;5.60;;
4738;SDS011;2383;48.632;10.156;2023-04-25T18:50:43;9.97;;;5.50;;
4738;SDS011;2383;48.632;10.156;2023-04-25T18:54:46;5.37;;;4.57;;
4738;SDS011;2383;48.632;10.156;2023-04-25T18:58:48;7.63;;;5.30;;
4738;SDS011;2383;48.632;10.156;2023-04-25T19:02:54;6.77;;;4.70;;
4738;SDS011;2383;48.632;10.156;2023-04-25T19:06:58;6.67;;;5.10;;
4738;SDS011;2383;48.632;10.156;2023-04-25T19:11:01;7.87;;;5.00;;
4738;SDS011;2383;48.632;10.156;2023-04-25T19:15:21;5.63;;;4.87;;
4738;SDS011;2383;48.632;10.156;2023-04-25T19:19:23;5.30;;;4.17;;
4738;SDS011;2383;48.632;10.156;2023-04-25T19:23:25;4.50;;;4.10;;
4738;SDS011;2383;48.632;10.156;2023-04-25T19:27:27;5.83;;;5.17;;
4738;SDS011;2383;48.632;10.156;2023-04-25T19:31:29;30.80;;;21.00;;
4738;SDS011;2383;48.632;10.156;2023-04-25T19:35:32;9.23;;;6.80;;
4738;SDS011;2383;48.632;10.156;2023-04-25T19:39:34;8.63;;;6.10;;
4738;SDS011;2383;48.632;10.156;2023-04-25T19:43:36;11.40;;;6.70;;
4738;SDS011;2383;48.632;10.156;2023-04-25T19:47:38;8.10;;;6.37;;
4738;SDS011;2383;48.632;10.156;2023-04-25T19:51:41;8.73;;;6.27;;
4738;SDS011;2383;48.632;10.156;2023-04-25T19:55:43;8.93;;;6.70;;
4738;SDS011;2383;48.632;10.156;2023-04-25T19:59:46;9.93;;;7.37;;
4738;SDS011;2383;48.632;10.156;2023-04-25T20:03:48;12.33;;;7.73;;
4738;SDS011;2383;48.632;10.156;2023-04-25T20:07:52;11.70;;;7.90;;
4738;SDS011;2383;48.632;10.156;2023-04-25T20:11:54;12.40;;;9.10;;
4738;SDS011;2383;48.632;10.156;2023-04-25T20:15:56;13.57;;;9.10;;
4738;SDS011;2383;48.632;10.156;2023-04-25T20:20:02;13.43;;;8.67;;
4738;SDS011;2383;48.632;10.156;2023-04-25T20:24:06;13.63;;;9.73;;
4738;SDS011;2383;48.632;10.156;2023-04-25T20:28:09;14.13;;;9.60;;
4738;SDS011;2383;48.632;10.156;2023-04-25T20:32:11;13.03;;;9.40;;
4738;SDS011;2383;48.632;10.156;2023-04-25T20:36:13;17.27;;;10.43;;
4738;SDS011;2383;48.632;10.156;2023-04-25T20:40:15;18.73;;;11.97;;
4738;SDS011;2383;48.632;10.156;2023-04-25T20:44:17;16.37;;;10.17;;
4738;SDS011;2383;48.632;10.156;2023-04-25T20:48:23;10.67;;;8.17;;
4738;SDS011;2383;48.632;10.156;2023-04-25T20:52:25;14.63;;;8.43;;
4738;SDS011;2383;48.632;10.156;2023-04-25T20:56:27;10.10;;;7.87;;
4738;SDS011;2383;48.632;10.156;2023-04-25T21:00:29;11.27;;;8.57;;
4738;SDS011;2383;48.632;10.156;2023-04-25T21:04:31;14.80;;;9.50;;
4738;SDS011;2383;48.632;10.156;2023-04-25T21:08:33;13.93;;;7.47;;
4738;SDS011;2383;48.632;10.156;2023-04-25T21:12:36;12.07;;;7.77;;
4738;SDS011;2383;48.632;10.156;2023-04-25T21:16:38;13.60;;;8.67;;
4738;SDS011;2383;48.632;10.156;2023-04-25T21:20:41;12.60;;;8.60;;
4738;SDS011;2383;48.632;10.156;2023-04-25T21:24:43;14.57;;;8.97;;
4738;SDS011;2383;48.632;10.156;2023-04-25T21:28:48;14.20;;;10.00;;
4738;SDS011;2383;48.632;10.156;2023-04-25T21:32:50;12.93;;;8.40;;
4738;SDS011;2383;48.632;10.156;2023-04-25T21:36:53;12.20;;;8.50;;
4738;SDS011;2383;48.632;10.156;2023-04-25T21:40:56;9.77;;;7.27;;
4738;SDS011;2383;48.632;10.156;2023-04-25T21:44:59;10.03;;;7.33;;
4738;SDS011;2383;48.632;10.156;2023-04-25T21:49:02;10.63;;;7.33;;
4738;SDS011;2383;48.632;10.156;2023-04-25T21:53:04;10.03;;;6.93;;
4738;SDS011;2383;48.632;10.156;2023-04-25T21:57:07;14.03;;;8.40;;
4738;SDS011;2383;48.632;10.156;2023-04-25T22:01:09;13.23;;;8.10;;
4738;SDS011;2383;48.632;10.156;2023-04-25T22:05:11;12.27;;;8.00;;
4738;SDS011;2383;48.632;10.156;2023-04-25T22:09:13;14.33;;;8.03;;
4738;SDS011;2383;48.632;10.156;2023-04-25T22:13:18;11.93;;;8.03;;
4738;SDS011;2383;48.632;10.156;2023-04-25T22:17:20;11.93;;;7.67;;
4738;SDS011;2383;48.632;10.156;2023-04-25T22:21:26;11.47;;;7.80;;
4738;SDS011;2383;48.632;10.156;2023-04-25T22:25:28;14.43;;;9.33;;
4738;SDS011;2383;48.632;10.156;2023-04-25T22:29:32;15.70;;;9.53;;
4738;SDS011;2383;48.632;10.156;2023-04-25T22:33:34;9.97;;;7.57;;
4738;SDS011;2383;48.632;10.156;2023-04-25T22:37:36;9.63;;;7.60;;
4738;SDS011;2383;48.632;10.156;2023-04-25T22:41:39;10.17;;;7.40;;
4738;SDS011;2383;48.632;10.156;2023-04-25T22:45:41;13.57;;;8.00;;
4738;SDS011;2383;48.632;10.156;2023-04-25T22:49:43;11.20;;;7.67;;
4738;SDS011;2383;48.632;10.156;2023-04-25T22:53:46;14.37;;;8.70;;
4738;SDS011;2383;48.632;10.156;2023-04-25T22:57:47;11.63;;;8.67;;
4738;SDS011;2383;48.632;10.156;2023-04-25T23:01:49;11.40;;;9.00;;
4738;SDS011;2383;48.632;10.156;2023-04-25T23:05:52;14.30;;;9.43;;
4738;SDS011;2383;48.632;10.156;2023-04-25T23:09:54;13.07;;;9.70;;
4738;SDS011;2383;48.632;10.156;2023-04-25T23:13:56;19.07;;;10.80;;
4738;SDS011;2383;48.632;10.156;2023-04-25T23:17:59;27.07;;;14.53;;
4738;SDS011;2383;48.632;10.156;2023-04-25T23:22:02;17.10;;;11.03;;
4738;SDS011;2383;48.632;10.156;2023-04-25T23:26:07;18.63;;;10.63;;
4738;SDS011;2383;48.632;10.156;2023-04-25T23:30:10;20.83;;;10.30;;
4738;SDS011;2383;48.632;10.156;2023-04-25T23:34:13;19.93;;;10.33;;
4738;SDS011;2383;48.632;10.156;2023-04-25T23:38:15;15.70;;;10.27;;
4738;SDS011;2383;48.632;10.156;2023-04-25T23:42:17;13.37;;;8.73;;
4738;SDS011;2383;48.632;10.156;2023-04-25T23:46:19;14.30;;;9.70;;
4738;SDS011;2383;48.632;10.156;2023-04-25T23:50:22;19.73;;;10.20;;
4738;SDS011;2383;48.632;10.156;2023-04-25T23:54:24;19.47;;;12.30;;
4738;SDS011;2383;48.632;10.156;2023-04-25T23:58:27;21.50;;;11.77;;
